CheckWX is a tool to help pilots better visualize weather data.  It is not intended as a substitute for an official pre-flight weather briefing.

00:59:50 UTC

CYVM TAF
Qikiqtarjuaq Airport
Qikiqtarjuaq, Canada
TAF CYVM 200038Z 2001/2013 06005KT P6SM SCT020 BKN050 TEMPO 2001/2002 2SM -SN SCT010 BKN020 OVC050 FM200200 18005KT P6SM SCT020 BKN040 TEMPO 2002/2013 5SM -SN BKN020 OVC040 RMK FCST BASED ON AUTO OBS. NXT FCST BY 200700Z

Apr-20@
01:00 UTC

Apr-20 @ 01:00 UTC

Apr-20@
02:00 UTC

Apr-20 @ 02:00 UTC

TAF CYVM 200038Z 2001/2013 06005KT P6SM SCT020 BKN050
Wind
  • 060° at 5 KTS
Cloud Levels
  • Scattered at 2,000' AGL
  • Broken at 5,000' AGL

Apr-20@
01:00 UTC

Apr-20 @ 01:00 UTC

Apr-20@
02:00 UTC

Apr-20 @ 02:00 UTC

TEMPO 2001/2002 2SM -SN SCT010 BKN020 OVC050

Temporary

Temporary Changes expected for less than half the time period

Conditions
Light Snow
Cloud Levels
  • Scattered at 1,000' AGL
  • Broken at 2,000' AGL
  • Overcast at 5,000' AGL

Apr-20@
02:00 UTC

Apr-20 @ 02:00 UTC

Apr-20@
13:00 UTC

Apr-20 @ 13:00 UTC

FM200200 18005KT P6SM SCT020 BKN040

From

From Standard forecast or significant change

Wind
  • 180° at 5 KTS
Cloud Levels
  • Scattered at 2,000' AGL
  • Broken at 4,000' AGL

Apr-20@
02:00 UTC

Apr-20 @ 02:00 UTC

Apr-20@
13:00 UTC

Apr-20 @ 13:00 UTC

TEMPO 2002/2013 5SM -SN BKN020 OVC040 RMK FCST BASED ON AUTO OBS. NXT FCST BY 200700Z

Temporary

Temporary Changes expected for less than half the time period

Conditions
Light Snow
Cloud Levels
  • Broken at 2,000' AGL
  • Overcast at 4,000' AGL